Terminal Aerodrome Forecast
Issued by NWS Charleston, WV

Current Version | Previous Version | Text Only | Print | Product List | Glossary Off
Versions: 1 2 3 4 5 6 7 8 9 10 11 12 13 14 15 16 17 18 19 20 21

000
FTUS41 KRLX 220903 AAA
TAFPKB
TAF AMD
KPKB 220903Z 2209/2306 24005KT P6SM SCT030
      TEMPO 2210/2212 5SM BR
     FM221300 24006KT P6SM FEW080
     FM221800 25010G15KT P6SM BKN050
     FM222100 27010G15KT P6SM BKN050
     FM222300 31007KT P6SM SCT060
     FM230400 VRB03KT P6SM FEW250=

USA.gov is the U.S. government's official web portal to all federal, state and local government web resources and services.